createdAt,value
2023-03-26T00:01:27.477Z,5.77
2023-03-26T00:03:55.292Z,5.70
2023-03-26T00:06:27.243Z,5.82
2023-03-26T00:08:55.847Z,5.71
2023-03-26T00:11:24.214Z,5.71
2023-03-26T00:13:53.713Z,5.76
2023-03-26T00:16:20.973Z,5.78
2023-03-26T00:18:49.107Z,5.71
2023-03-26T00:21:18.103Z,5.77
2023-03-26T00:23:45.560Z,5.75
2023-03-26T00:26:13.009Z,5.73
2023-03-26T00:28:41.865Z,5.73
2023-03-26T00:31:12.288Z,5.76
2023-03-26T00:33:40.897Z,5.77
2023-03-26T00:36:11.194Z,5.64
2023-03-26T00:38:41.748Z,5.73
2023-03-26T00:41:17.646Z,5.71
2023-03-26T00:43:53.334Z,5.65
2023-03-26T00:46:20.628Z,5.68
2023-03-26T00:48:50.844Z,5.68
2023-03-26T00:51:19.347Z,5.66
2023-03-26T00:53:48.347Z,5.63
2023-03-26T00:56:15.808Z,5.65
2023-03-26T00:58:43.125Z,5.68
2023-03-26T01:01:16.641Z,5.61
2023-03-26T01:03:57.095Z,5.71
2023-03-26T01:06:36.760Z,5.70
2023-03-26T01:09:37.194Z,5.68
2023-03-26T01:12:07.499Z,5.56
2023-03-26T01:14:34.735Z,5.55
2023-03-26T01:17:04.225Z,5.60
2023-03-26T01:19:44.882Z,5.64
2023-03-26T01:22:18.296Z,5.62
2023-03-26T01:24:56.978Z,5.56
2023-03-26T01:27:47.434Z,5.56
2023-03-26T01:30:28.469Z,5.47
2023-03-26T01:33:26.515Z,5.38
2023-03-26T01:36:08.469Z,5.48
2023-03-26T01:38:53.598Z,5.49
2023-03-26T01:41:48.308Z,5.46
2023-03-26T01:44:35.154Z,5.33
2023-03-26T01:47:02.291Z,5.33
2023-03-26T01:49:32.321Z,5.24
2023-03-26T01:51:59.454Z,5.23
2023-03-26T01:54:34.005Z,5.20
2023-03-26T01:57:22.838Z,5.12
2023-03-26T02:00:15.296Z,5.06
2023-03-26T02:03:04.017Z,5.01
2023-03-26T02:05:35.952Z,4.96
2023-03-26T02:08:16.756Z,4.92
2023-03-26T02:10:46.218Z,4.78
2023-03-26T02:13:13.865Z,4.75
2023-03-26T02:15:41.548Z,4.71
2023-03-26T02:18:11.086Z,4.72
2023-03-26T02:20:38.100Z,4.71
2023-03-26T02:23:05.862Z,4.69
2023-03-26T02:25:35.401Z,4.66
2023-03-26T02:28:02.895Z,4.52
2023-03-26T02:30:30.124Z,4.66
2023-03-26T02:33:02.504Z,4.69
2023-03-26T02:35:46.310Z,4.59
2023-03-26T02:38:14.719Z,4.68
2023-03-26T02:40:42.686Z,4.62
2023-03-26T02:43:09.936Z,4.68
2023-03-26T02:45:37.536Z,4.70
2023-03-26T02:48:08.164Z,4.67
2023-03-26T02:50:55.625Z,4.80
2023-03-26T02:53:44.201Z,4.71
2023-03-26T02:56:34.317Z,4.72
2023-03-26T02:59:15.113Z,4.69
2023-03-26T03:01:45.170Z,4.75
2023-03-26T03:04:18.141Z,4.74
2023-03-26T03:06:46.802Z,4.75
2023-03-26T03:09:50.807Z,4.81
2023-03-26T03:12:41.658Z,4.73
2023-03-26T03:15:09.672Z,4.71
2023-03-26T03:17:36.736Z,4.85
2023-03-26T03:20:07.127Z,4.71
2023-03-26T03:22:36.269Z,4.73
2023-03-26T03:25:14.476Z,4.85
2023-03-26T03:27:42.971Z,4.83
2023-03-26T03:30:16.367Z,4.78
2023-03-26T03:32:46.421Z,4.64
2023-03-26T03:35:21.873Z,4.58
2023-03-26T03:37:54.552Z,4.72
2023-03-26T03:40:25.371Z,4.61
2023-03-26T03:42:53.485Z,4.65
2023-03-26T03:45:29.930Z,4.75
2023-03-26T03:48:23.475Z,4.76
2023-03-26T03:50:54.090Z,4.87
2023-03-26T03:53:26.461Z,4.89
2023-03-26T03:55:57.055Z,4.92
2023-03-26T03:58:34.884Z,5.01
2023-03-26T04:01:11.341Z,4.99
2023-03-26T04:03:58.815Z,5.06
2023-03-26T04:09:34.765Z,5.15
2023-03-26T04:12:17.534Z,5.34
2023-03-26T04:15:33.038Z,5.37
2023-03-26T04:18:43.421Z,5.40
2023-03-26T04:35:04.245Z,5.80
2023-03-26T05:26:17.457Z,5.94
2023-03-26T05:28:46.446Z,5.93
2023-03-26T05:31:31.301Z,5.89
2023-03-26T05:34:04.574Z,5.92
2023-03-26T05:45:52.748Z,5.85
2023-03-26T05:48:44.982Z,5.86
2023-03-26T05:51:20.405Z,5.82
2023-03-26T05:53:57.408Z,5.70
2023-03-26T05:56:45.145Z,5.77
2023-03-26T05:59:35.103Z,5.69
2023-03-26T06:02:22.325Z,5.80
2023-03-26T06:05:12.876Z,5.66
2023-03-26T06:08:08.779Z,5.80
2023-03-26T06:11:08.618Z,5.73
2023-03-26T06:14:01.152Z,5.83
2023-03-26T06:16:44.582Z,5.73
2023-03-26T06:23:02.209Z,5.80
2023-03-26T06:25:49.857Z,5.89
2023-03-26T06:28:37.429Z,5.96
2023-03-26T06:31:39.925Z,5.85
2023-03-26T06:34:38.979Z,5.95
2023-03-26T06:37:08.984Z,6.05
2023-03-26T06:39:40.862Z,6.07
2023-03-26T06:42:20.171Z,6.05
2023-03-26T06:45:05.682Z,5.90
2023-03-26T06:47:36.843Z,6.10
2023-03-26T06:50:51.802Z,6.06
2023-03-26T06:53:57.497Z,6.02
2023-03-26T06:57:05.856Z,6.05
2023-03-26T06:59:57.667Z,6.05
2023-03-26T07:02:50.723Z,6.14
2023-03-26T07:05:43.909Z,6.24
2023-03-26T07:08:31.071Z,6.20
2023-03-26T07:11:21.353Z,6.28
2023-03-26T07:14:19.463Z,6.15
2023-03-26T07:16:54.717Z,6.13
2023-03-26T07:19:34.873Z,6.15
2023-03-26T07:22:02.416Z,6.21
2023-03-26T07:24:48.462Z,6.24
2023-03-26T07:28:11.685Z,6.32
2023-03-26T07:31:07.614Z,6.26
2023-03-26T07:34:36.255Z,6.34
2023-03-26T07:37:54.910Z,6.29
2023-03-26T07:40:31.752Z,6.24
2023-03-26T07:43:47.201Z,6.13
2023-03-26T07:46:39.692Z,6.10
2023-03-26T07:49:36.729Z,6.08
2023-03-26T07:52:34.481Z,6.03
2023-03-26T07:55:48.196Z,5.96
2023-03-26T08:03:01.458Z,6.03
2023-03-26T08:05:54.568Z,5.98
2023-03-26T08:08:48.614Z,6.02
2023-03-26T08:11:55.006Z,6.17
2023-03-26T08:17:58.743Z,6.00
2023-03-26T08:20:41.694Z,6.04
2023-03-26T08:23:33.489Z,5.92
2023-03-26T08:26:22.958Z,6.07
2023-03-26T08:28:58.072Z,5.97
2023-03-26T08:31:33.656Z,6.02
2023-03-26T08:34:01.559Z,5.88
2023-03-26T08:36:51.471Z,5.85
2023-03-26T08:39:22.465Z,5.94
2023-03-26T08:42:21.277Z,6.07
2023-03-26T08:45:21.480Z,6.10
2023-03-26T08:48:42.961Z,6.10
2023-03-26T08:51:33.335Z,6.07
2023-03-26T08:54:24.403Z,6.07
2023-03-26T08:57:13.480Z,6.03
2023-03-26T09:00:01.276Z,6.04
2023-03-26T09:03:02.282Z,5.90
2023-03-26T09:05:46.324Z,6.04
2023-03-26T09:08:30.120Z,6.07
2023-03-26T09:11:35.718Z,6.11
2023-03-26T09:14:30.633Z,6.12
2023-03-26T09:17:16.331Z,6.13
2023-03-26T09:20:05.021Z,6.07
2023-03-26T09:22:59.811Z,6.10
2023-03-26T09:25:40.015Z,6.08
2023-03-26T09:28:22.227Z,6.11
2023-03-26T09:31:27.235Z,6.21
2023-03-26T09:34:32.549Z,6.19
2023-03-26T09:37:20.141Z,6.38
2023-03-26T09:40:09.106Z,6.32
2023-03-26T09:42:53.319Z,6.21
2023-03-26T09:45:29.547Z,6.27
2023-03-26T09:48:27.176Z,6.27
2023-03-26T09:51:09.175Z,6.25
2023-03-26T09:53:58.076Z,6.25
2023-03-26T09:56:43.650Z,6.26
2023-03-26T09:59:32.331Z,6.23
2023-03-26T10:02:45.933Z,6.23
2023-03-26T10:05:29.940Z,6.20
2023-03-26T10:08:15.199Z,6.17
2023-03-26T10:11:08.239Z,6.26
2023-03-26T10:14:03.813Z,6.32
2023-03-26T10:16:33.856Z,6.36
2023-03-26T10:19:32.667Z,6.37
2023-03-26T10:22:35.362Z,6.33
2023-03-26T10:36:08.525Z,6.45
2023-03-26T10:39:11.032Z,6.43
2023-03-26T10:42:31.533Z,6.47
2023-03-26T10:45:30.781Z,6.50
2023-03-26T10:51:55.512Z,6.56
2023-03-26T10:54:33.127Z,6.59
2023-03-26T10:57:01.367Z,6.62
2023-03-26T10:59:42.244Z,6.57
2023-03-26T11:02:41.503Z,6.43
2023-03-26T11:05:41.059Z,6.59
2023-03-26T11:08:51.028Z,6.57
2023-03-26T11:11:31.210Z,6.50
2023-03-26T11:14:04.900Z,6.57
2023-03-26T11:17:39.702Z,6.65
2023-03-26T11:27:15.363Z,6.58
2023-03-26T11:30:39.022Z,6.37
2023-03-26T11:33:11.452Z,6.46
2023-03-26T11:35:41.846Z,6.43
2023-03-26T11:38:53.777Z,6.41
2023-03-26T11:59:06.701Z,6.44
2023-03-26T12:37:38.851Z,6.19
2023-03-26T12:40:44.766Z,6.27
2023-03-26T12:44:52.815Z,6.23
2023-03-26T13:08:21.624Z,6.23
2023-03-26T13:14:11.469Z,6.19
2023-03-26T13:39:22.681Z,5.94
2023-03-26T13:43:03.069Z,5.79
2023-03-26T13:50:13.758Z,5.75
2023-03-26T13:53:06.025Z,5.67
2023-03-26T13:56:20.034Z,5.62
2023-03-26T13:59:18.644Z,5.80
2023-03-26T14:01:56.829Z,5.79
2023-03-26T14:04:44.830Z,5.79
2023-03-26T14:07:53.058Z,5.70
2023-03-26T14:14:03.885Z,5.72
2023-03-26T14:16:59.915Z,5.67
2023-03-26T14:20:13.798Z,5.66
2023-03-26T14:22:49.319Z,5.62
2023-03-26T14:25:59.899Z,5.67
2023-03-26T14:28:52.032Z,5.63
2023-03-26T14:31:29.483Z,5.58
2023-03-26T14:37:30.350Z,5.59
2023-03-26T14:40:21.231Z,5.54
2023-03-26T14:46:29.148Z,5.54
2023-03-26T14:49:21.966Z,5.54
2023-03-26T14:52:00.002Z,5.52
2023-03-26T14:54:29.994Z,5.57
2023-03-26T15:00:52.688Z,5.57
2023-03-26T15:04:03.153Z,5.57
2023-03-26T15:07:10.860Z,5.54
2023-03-26T15:19:14.689Z,5.50
2023-03-26T15:22:03.241Z,5.51
2023-03-26T15:25:21.557Z,5.49
2023-03-26T15:28:37.139Z,5.32
2023-03-26T15:31:13.459Z,5.28
2023-03-26T15:37:54.448Z,5.39
2023-03-26T15:45:19.055Z,5.41
2023-03-26T15:48:13.325Z,5.39
2023-03-26T15:51:00.943Z,5.33
2023-03-26T16:00:59.372Z,5.30
2023-03-26T16:03:49.872Z,5.29
2023-03-26T16:06:44.726Z,5.32
2023-03-26T16:09:25.590Z,5.34
2023-03-26T16:12:44.099Z,5.21
2023-03-26T16:18:15.947Z,5.33
2023-03-26T16:24:09.240Z,5.16
2023-03-26T16:31:51.046Z,5.29
2023-03-26T16:38:27.626Z,5.21
2023-03-26T16:55:29.782Z,5.29
2023-03-26T16:58:09.590Z,5.30
2023-03-26T17:00:56.100Z,5.32
2023-03-26T17:04:00.446Z,5.10
2023-03-26T17:07:10.818Z,5.27
2023-03-26T17:10:14.837Z,5.22
2023-03-26T17:12:54.218Z,5.15
2023-03-26T17:15:59.112Z,5.26
2023-03-26T17:19:13.570Z,5.16
2023-03-26T17:22:29.438Z,5.26
2023-03-26T17:25:07.061Z,5.26
2023-03-26T17:28:48.787Z,5.11
2023-03-26T17:31:47.441Z,5.16
2023-03-26T17:34:37.760Z,5.26
2023-03-26T17:37:36.872Z,5.17
2023-03-26T17:41:14.322Z,5.21
2023-03-26T17:43:53.020Z,4.98
2023-03-26T17:46:40.709Z,5.19
2023-03-26T17:55:33.263Z,5.09
2023-03-26T17:58:08.780Z,4.93
2023-03-26T18:04:16.144Z,4.84
2023-03-26T18:06:54.642Z,5.02
2023-03-26T18:10:01.829Z,4.95
2023-03-26T18:15:39.477Z,4.93
2023-03-26T18:18:20.602Z,5.01
2023-03-26T18:20:55.902Z,4.92
2023-03-26T18:23:55.205Z,4.97
2023-03-26T18:26:43.509Z,4.86
2023-03-26T18:29:34.788Z,4.86
2023-03-26T18:32:23.801Z,4.90
2023-03-26T18:35:34.460Z,4.86
2023-03-26T18:38:09.145Z,4.78
2023-03-26T18:40:44.282Z,4.87
2023-03-26T18:43:32.282Z,4.85
2023-03-26T18:46:42.453Z,4.85
2023-03-26T18:49:18.696Z,4.81
2023-03-26T18:51:55.978Z,4.73
2023-03-26T18:54:34.410Z,4.84
2023-03-26T18:57:15.741Z,4.84
2023-03-26T18:59:45.765Z,4.77
2023-03-26T19:02:14.032Z,4.81
2023-03-26T19:04:46.146Z,4.75
2023-03-26T19:07:27.121Z,4.74
2023-03-26T19:09:57.493Z,4.85
2023-03-26T19:12:31.046Z,4.76
2023-03-26T19:15:18.856Z,4.76
2023-03-26T19:17:57.610Z,4.77
2023-03-26T19:20:28.411Z,4.93
2023-03-26T19:23:05.308Z,4.78
2023-03-26T19:25:39.361Z,4.82
2023-03-26T19:28:21.404Z,4.94
2023-03-26T19:30:53.929Z,4.94
2023-03-26T19:33:22.877Z,4.89
2023-03-26T19:36:01.755Z,4.74
2023-03-26T19:38:38.976Z,4.74
2023-03-26T19:41:06.200Z,4.78
2023-03-26T19:43:36.476Z,4.81
2023-03-26T19:46:03.711Z,4.56
2023-03-26T19:48:46.247Z,4.57
2023-03-26T19:51:26.193Z,4.65
2023-03-26T19:53:56.152Z,4.42
2023-03-26T19:56:25.689Z,4.44
2023-03-26T19:58:53.624Z,4.43
2023-03-26T20:01:26.872Z,4.34
2023-03-26T20:04:02.611Z,4.36
2023-03-26T20:06:42.352Z,4.19
2023-03-26T20:09:16.440Z,4.06
2023-03-26T20:11:43.801Z,4.12
2023-03-26T20:14:17.785Z,4.14
2023-03-26T20:16:45.999Z,4.14
2023-03-26T20:19:15.260Z,3.96
2023-03-26T20:21:42.957Z,4.03
2023-03-26T20:24:15.900Z,3.84
2023-03-26T20:26:46.882Z,3.95
2023-03-26T20:29:15.184Z,3.67
2023-03-26T20:31:45.268Z,3.77
2023-03-26T20:34:20.043Z,3.73
2023-03-26T20:36:47.155Z,3.63
2023-03-26T20:39:15.189Z,3.48
2023-03-26T20:44:38.121Z,3.54
2023-03-26T20:50:06.057Z,3.33
2023-03-26T20:52:37.162Z,3.47
2023-03-26T20:55:16.114Z,3.44
2023-03-26T20:57:48.762Z,3.48
2023-03-26T21:00:23.607Z,3.44
2023-03-26T21:02:53.497Z,3.38
2023-03-26T21:05:25.889Z,3.24
2023-03-26T21:07:59.045Z,3.39
2023-03-26T21:10:31.798Z,3.25
2023-03-26T21:13:04.874Z,3.30
2023-03-26T21:15:37.926Z,3.37
2023-03-26T21:18:05.741Z,3.32
2023-03-26T21:20:34.847Z,3.30
2023-03-26T21:23:11.642Z,3.42
2023-03-26T21:25:44.322Z,3.39
2023-03-26T21:28:32.242Z,3.38
2023-03-26T21:31:14.576Z,3.29
2023-03-26T21:33:42.920Z,3.38
2023-03-26T21:36:11.257Z,3.35
2023-03-26T21:38:38.941Z,3.38
2023-03-26T21:41:09.898Z,3.28
2023-03-26T21:43:40.445Z,3.23
2023-03-26T21:46:08.343Z,3.29
2023-03-26T21:48:40.912Z,3.31
2023-03-26T21:51:15.367Z,3.30
2023-03-26T21:53:45.527Z,3.32
2023-03-26T21:56:38.262Z,3.36
2023-03-26T21:59:13.350Z,3.33
2023-03-26T22:01:49.519Z,3.29
2023-03-26T22:04:41.682Z,3.22
2023-03-26T22:07:17.018Z,3.24
2023-03-26T22:09:45.157Z,3.12
2023-03-26T22:12:12.719Z,3.12
2023-03-26T22:14:39.693Z,3.13
2023-03-26T22:17:06.957Z,3.13
2023-03-26T22:19:34.770Z,3.14
2023-03-26T22:22:05.448Z,3.17
2023-03-26T22:24:32.984Z,3.10
2023-03-26T22:27:00.091Z,3.17
2023-03-26T22:29:28.630Z,3.15
2023-03-26T22:31:59.580Z,3.11
2023-03-26T22:34:27.706Z,3.11
2023-03-26T22:36:57.662Z,3.01
2023-03-26T22:39:25.112Z,3.14
2023-03-26T22:41:52.253Z,3.07
2023-03-26T22:44:20.493Z,3.16
2023-03-26T22:46:51.402Z,2.98
2023-03-26T22:49:19.010Z,3.15
2023-03-26T22:51:46.107Z,3.11
2023-03-26T22:54:13.365Z,3.13
2023-03-26T22:56:41.749Z,3.11
2023-03-26T22:59:08.781Z,3.04
2023-03-26T23:01:36.430Z,3.14
2023-03-26T23:04:03.699Z,3.15
2023-03-26T23:06:31.772Z,3.02
2023-03-26T23:08:59.082Z,3.14
2023-03-26T23:11:26.761Z,2.99
2023-03-26T23:13:53.709Z,3.07
2023-03-26T23:16:25.827Z,2.95
2023-03-26T23:18:55.871Z,3.06
2023-03-26T23:21:23.905Z,3.00
2023-03-26T23:23:55.546Z,3.06
2023-03-26T23:26:23.906Z,3.03
2023-03-26T23:28:51.316Z,3.01
2023-03-26T23:31:18.375Z,3.07
2023-03-26T23:33:48.140Z,3.01
2023-03-26T23:36:19.055Z,3.01
2023-03-26T23:38:52.297Z,2.97
2023-03-26T23:41:23.496Z,3.06
2023-03-26T23:43:54.295Z,3.00
2023-03-26T23:46:34.837Z,2.97
2023-03-26T23:49:03.627Z,2.89
2023-03-26T23:51:32.004Z,2.80
2023-03-26T23:53:59.965Z,2.86
2023-03-26T23:56:30.297Z,2.94
2023-03-26T23:58:58.432Z,2.86
